Time;durP1;ratioP1;P1;durP2;ratioP2;P2;SDS_P1;SDS_P2;PMS_P1;PMS_P2;Temp;Humidity;BMP_temperature;BMP_pressure;BME280_temperature;BME280_humidity;BME280_pressure;Samples;Min_cycle;Max_cycle;Signal;HPM_P1;HPM_P2
2023/12/14 00:02:04;;;;;;;15.82;6.60;;;6.00;99.90;;;;;;5052212;28;20041;-72
2023/12/14 00:04:29;;;;;;;9.70;5.80;;;6.00;99.90;;;;;;5052317;28;20060;-72
2023/12/14 00:06:55;;;;;;;8.88;5.43;;;6.00;99.90;;;;;;5051868;28;20076;-72
2023/12/14 00:09:21;;;;;;;9.20;5.80;;;6.00;99.90;;;;;;5052185;28;20052;-72
2023/12/14 00:11:46;;;;;;;9.70;5.25;;;6.00;99.90;;;;;;5052248;28;20103;-72
2023/12/14 00:14:12;;;;;;;9.93;5.65;;;5.90;99.90;;;;;;5051081;28;20037;-72
2023/12/14 00:16:37;;;;;;;8.50;5.25;;;6.00;99.90;;;;;;5051854;28;20439;-72
2023/12/14 00:19:03;;;;;;;8.68;5.47;;;6.00;99.90;;;;;;5052091;28;20511;-71
2023/12/14 00:21:29;;;;;;;10.80;6.03;;;6.00;99.90;;;;;;5051757;28;20432;-71
2023/12/14 00:23:54;;;;;;;8.95;5.38;;;5.90;99.90;;;;;;5052175;28;20095;-72
2023/12/14 00:26:20;;;;;;;9.63;5.53;;;5.90;99.90;;;;;;5051825;28;20492;-72
2023/12/14 00:28:45;;;;;;;9.88;5.05;;;5.80;99.90;;;;;;5051533;28;20032;-72
2023/12/14 00:31:11;;;;;;;8.80;4.70;;;5.90;99.90;;;;;;5050427;28;20041;-72
2023/12/14 00:33:37;;;;;;;8.60;5.18;;;5.90;99.90;;;;;;5051911;28;20044;-72
2023/12/14 00:36:02;;;;;;;6.35;4.45;;;6.00;99.90;;;;;;5051629;28;20041;-72
2023/12/14 00:38:28;;;;;;;7.13;4.47;;;5.90;99.90;;;;;;5051866;28;20037;-72
2023/12/14 00:40:54;;;;;;;7.95;4.97;;;5.90;99.90;;;;;;5051799;28;20116;-72
2023/12/14 00:43:19;;;;;;;6.82;4.55;;;5.90;99.90;;;;;;5051745;28;20041;-71
2023/12/14 00:45:45;;;;;;;5.38;3.78;;;5.90;99.90;;;;;;5051652;28;20037;-71
2023/12/14 00:48:11;;;;;;;4.75;3.83;;;5.90;99.90;;;;;;5050342;28;20029;-72
2023/12/14 00:50:37;;;;;;;6.93;4.07;;;5.90;99.90;;;;;;5051455;28;20036;-72
2023/12/14 00:53:02;;;;;;;5.95;3.60;;;5.90;99.90;;;;;;5051592;28;20060;-72
2023/12/14 00:55:28;;;;;;;8.63;5.13;;;6.00;99.90;;;;;;5051672;28;20037;-72
2023/12/14 00:57:53;;;;;;;9.18;4.43;;;5.90;99.90;;;;;;5051516;28;20033;-72
2023/12/14 01:00:19;;;;;;;5.80;3.80;;;5.90;99.90;;;;;;5051585;28;20136;-72
2023/12/14 01:02:45;;;;;;;8.30;4.15;;;5.90;99.90;;;;;;5051555;28;20040;-72
2023/12/14 01:05:10;;;;;;;9.50;4.45;;;5.90;99.90;;;;;;5051328;28;20043;-71
2023/12/14 01:07:36;;;;;;;10.25;5.72;;;5.90;99.90;;;;;;5051450;28;20500;-72
2023/12/14 01:10:02;;;;;;;7.50;4.82;;;5.90;99.90;;;;;;5051631;28;20041;-72
2023/12/14 01:12:28;;;;;;;9.18;5.57;;;6.00;99.90;;;;;;5051724;28;20152;-71
2023/12/14 01:14:53;;;;;;;9.48;5.80;;;5.90;99.90;;;;;;5051406;28;20408;-72
2023/12/14 01:17:19;;;;;;;12.88;6.93;;;5.90;99.90;;;;;;5051196;28;20052;-72
2023/12/14 01:19:45;;;;;;;12.27;6.13;;;5.90;99.90;;;;;;5051160;28;20060;-72
2023/12/14 01:22:10;;;;;;;10.73;5.97;;;5.80;99.90;;;;;;5051538;28;20094;-72
2023/12/14 01:24:36;;;;;;;10.02;6.28;;;5.80;99.90;;;;;;5050277;28;20086;-71
2023/12/14 01:27:02;;;;;;;11.40;5.95;;;5.80;99.90;;;;;;5051175;28;20439;-71
2023/12/14 01:29:27;;;;;;;12.85;6.00;;;5.80;99.90;;;;;;5051376;28;20111;-71
2023/12/14 01:31:53;;;;;;;12.18;6.70;;;5.70;99.90;;;;;;5049820;28;20060;-71
2023/12/14 01:34:19;;;;;;;14.23;7.40;;;5.80;99.90;;;;;;5049851;28;20124;-72
2023/12/14 01:36:44;;;;;;;12.65;6.65;;;5.80;99.90;;;;;;5051127;28;20099;-71
2023/12/14 01:39:10;;;;;;;14.82;7.68;;;5.80;99.90;;;;;;5051404;28;20412;-72
2023/12/14 01:41:36;;;;;;;17.50;8.32;;;5.80;99.90;;;;;;5053851;28;20033;-71
2023/12/14 01:44:01;;;;;;;17.27;7.22;;;5.80;99.90;;;;;;5055022;28;20037;-71
2023/12/14 01:46:27;;;;;;;13.75;6.25;;;5.70;99.90;;;;;;5054641;28;20102;-72
2023/12/14 01:48:52;;;;;;;15.10;7.78;;;5.80;99.90;;;;;;5054738;28;20037;-72
2023/12/14 01:51:19;;;;;;;15.30;6.80;;;5.80;99.90;;;;;;5054959;28;20476;-72
2023/12/14 01:53:44;;;;;;;17.10;7.88;;;5.80;99.90;;;;;;5054938;28;20037;-72
2023/12/14 01:56:10;;;;;;;17.48;7.85;;;5.80;99.90;;;;;;5054672;28;20037;-71
2023/12/14 01:58:36;;;;;;;16.25;7.70;;;5.70;99.90;;;;;;5054700;28;20068;-72
2023/12/14 02:01:16;;;;;;;19.75;8.95;;;5.80;99.90;;;;;;5053556;28;20428;-72
2023/12/14 02:03:50;;;;;;;13.75;8.07;;;5.70;99.90;;;;;;5054370;28;20045;-72
2023/12/14 02:06:16;;;;;;;16.80;8.05;;;5.80;99.90;;;;;;5053094;28;20102;-72
2023/12/14 02:08:41;;;;;;;15.57;7.63;;;5.70;99.90;;;;;;5054736;28;20033;-72
2023/12/14 02:11:07;;;;;;;17.77;8.77;;;5.80;99.90;;;;;;5053413;28;20033;-71
2023/12/14 02:13:33;;;;;;;17.60;9.13;;;5.80;99.90;;;;;;5054375;28;20048;-71
2023/12/14 02:15:58;;;;;;;16.25;9.65;;;5.70;99.90;;;;;;5052901;28;20045;-72
2023/12/14 02:18:24;;;;;;;16.55;9.10;;;5.70;99.90;;;;;;5054076;28;20086;-71
2023/12/14 02:20:50;;;;;;;13.75;7.82;;;5.80;99.90;;;;;;5053205;28;20448;-72
2023/12/14 02:23:15;;;;;;;19.27;9.38;;;5.70;99.90;;;;;;5054195;28;20076;-71
2023/12/14 02:25:41;;;;;;;17.05;7.95;;;5.80;99.90;;;;;;5052799;28;20045;-72
2023/12/14 02:28:06;;;;;;;21.15;8.57;;;5.80;99.90;;;;;;5053948;28;20044;-71
2023/12/14 02:30:38;;;;;;;13.93;7.65;;;5.70;99.90;;;;;;5077890;22;20068;-75
2023/12/14 02:33:04;;;;;;;16.52;8.02;;;5.70;99.90;;;;;;5028340;28;20063;-75
2023/12/14 02:35:30;;;;;;;20.23;9.90;;;5.80;99.90;;;;;;5028231;28;20044;-75
2023/12/14 02:37:55;;;;;;;19.65;8.45;;;5.80;99.90;;;;;;5043667;28;20041;-75
2023/12/14 02:40:21;;;;;;;19.35;8.65;;;5.80;99.90;;;;;;5044034;28;20045;-75
2023/12/14 02:42:46;;;;;;;21.75;8.65;;;5.70;99.90;;;;;;5026679;28;20041;-75
2023/12/14 02:45:12;;;;;;;14.18;7.85;;;5.80;99.90;;;;;;5043221;28;20032;-75
2023/12/14 02:47:38;;;;;;;13.32;7.95;;;5.80;99.90;;;;;;5042267;28;20535;-75
2023/12/14 02:50:04;;;;;;;18.75;8.50;;;5.70;99.90;;;;;;5042300;28;20412;-75
2023/12/14 02:52:29;;;;;;;16.98;7.68;;;5.70;99.90;;;;;;5041640;28;20048;-75
2023/12/14 02:54:55;;;;;;;15.98;7.65;;;5.70;99.90;;;;;;5041226;28;20040;-75
2023/12/14 02:57:21;;;;;;;17.45;8.38;;;5.80;99.90;;;;;;5041425;28;20547;-75
2023/12/14 02:59:46;;;;;;;20.77;7.75;;;5.70;99.90;;;;;;5041521;28;20067;-75
2023/12/14 03:02:12;;;;;;;16.35;7.75;;;5.70;99.90;;;;;;5041345;28;20047;-75
2023/12/14 03:04:39;;;;;;;19.38;8.98;;;5.70;99.90;;;;;;5041622;28;20045;-75
2023/12/14 03:07:05;;;;;;;14.73;7.40;;;5.70;99.90;;;;;;5025229;28;20072;-75
2023/12/14 03:09:31;;;;;;;18.77;8.43;;;5.70;99.90;;;;;;5043179;28;20529;-75
2023/12/14 03:11:56;;;;;;;19.65;8.05;;;5.80;99.90;;;;;;5024849;28;20037;-75
2023/12/14 03:14:22;;;;;;;20.98;8.35;;;5.80;99.90;;;;;;5039309;28;20126;-74
2023/12/14 03:16:48;;;;;;;16.17;7.38;;;5.70;99.90;;;;;;5041437;28;20087;-75
2023/12/14 03:19:15;;;;;;;18.05;8.65;;;5.70;99.90;;;;;;5039258;28;20048;-74
2023/12/14 03:21:42;;;;;;;13.88;7.28;;;5.70;99.90;;;;;;5025202;28;20481;-75
2023/12/14 03:24:09;;;;;;;18.73;8.05;;;5.70;99.90;;;;;;5057074;28;20040;-75
2023/12/14 03:26:34;;;;;;;15.55;7.50;;;5.70;99.90;;;;;;5038609;28;20041;-74
2023/12/14 03:29:00;;;;;;;12.40;6.82;;;5.70;99.90;;;;;;5039265;28;20112;-75
2023/12/14 03:31:26;;;;;;;16.17;8.45;;;5.80;99.90;;;;;;5040529;28;20158;-75
2023/12/14 03:33:51;;;;;;;15.80;9.40;;;5.70;99.90;;;;;;5040684;28;20041;-75
2023/12/14 03:36:17;;;;;;;18.55;7.85;;;5.70;99.90;;;;;;5038499;28;20507;-74
2023/12/14 03:38:42;;;;;;;14.20;6.90;;;5.70;99.90;;;;;;5038970;28;20124;-74
2023/12/14 03:41:08;;;;;;;14.35;7.32;;;5.80;99.90;;;;;;5041524;28;20037;-75
2023/12/14 03:43:34;;;;;;;14.52;6.53;;;5.70;99.90;;;;;;5040770;28;20064;-75
2023/12/14 03:45:59;;;;;;;17.02;6.90;;;5.80;99.90;;;;;;5056640;28;20502;-74
2023/12/14 03:48:25;;;;;;;14.30;7.15;;;5.70;99.90;;;;;;5038483;28;20095;-74
2023/12/14 03:50:51;;;;;;;12.68;6.80;;;5.90;99.90;;;;;;5038412;28;20033;-74
2023/12/14 03:53:16;;;;;;;10.68;6.55;;;5.60;99.90;;;;;;5043971;28;20047;-75
2023/12/14 03:55:42;;;;;;;15.35;6.28;;;5.70;99.90;;;;;;5041674;28;20045;-75
2023/12/14 03:58:07;;;;;;;16.58;7.68;;;5.60;99.90;;;;;;5041575;28;20424;-75
2023/12/14 04:00:33;;;;;;;12.15;6.68;;;5.60;99.90;;;;;;5042047;28;20033;-75
2023/12/14 04:02:59;;;;;;;14.40;7.00;;;5.70;99.90;;;;;;5041021;28;20037;-75
2023/12/14 04:05:24;;;;;;;15.15;5.97;;;5.70;99.90;;;;;;5043257;28;20036;-75
2023/12/14 04:07:50;;;;;;;20.27;8.05;;;5.60;99.90;;;;;;5041261;28;20047;-75
2023/12/14 04:10:15;;;;;;;13.43;8.18;;;5.60;99.90;;;;;;5041087;28;20041;-75
2023/12/14 04:12:41;;;;;;;18.13;7.40;;;5.60;99.90;;;;;;5041513;28;20041;-75
2023/12/14 04:15:09;;;;;;;19.52;7.85;;;5.60;99.90;;;;;;5041763;28;20044;-75
2023/12/14 04:17:35;;;;;;;16.90;6.35;;;5.60;99.90;;;;;;5042420;28;20044;-75
2023/12/14 04:20:02;;;;;;;18.05;7.50;;;5.60;99.90;;;;;;5037601;28;20047;-74
2023/12/14 04:22:29;;;;;;;14.82;7.22;;;5.70;99.90;;;;;;5024694;28;20048;-75
2023/12/14 04:24:54;;;;;;;14.90;7.13;;;5.60;99.90;;;;;;5041447;28;20043;-74
2023/12/14 04:27:20;;;;;;;14.32;6.93;;;5.50;99.90;;;;;;5041984;28;20045;-75
2023/12/14 04:29:46;;;;;;;15.73;7.85;;;5.60;99.90;;;;;;5042964;28;20094;-75
2023/12/14 04:32:12;;;;;;;19.77;7.03;;;5.60;99.90;;;;;;5025612;28;20045;-75
2023/12/14 04:34:37;;;;;;;15.93;9.13;;;5.60;99.90;;;;;;5041868;28;20112;-75
2023/12/14 04:37:03;;;;;;;13.45;7.40;;;5.50;99.90;;;;;;5042042;28;20037;-75
2023/12/14 04:39:29;;;;;;;15.13;8.45;;;5.60;99.90;;;;;;5041599;28;20051;-75
2023/12/14 04:41:54;;;;;;;16.40;8.35;;;5.60;99.90;;;;;;5041609;28;20037;-74
2023/12/14 04:44:21;;;;;;;15.23;8.00;;;5.60;99.90;;;;;;5041854;28;20072;-75
2023/12/14 04:46:47;;;;;;;16.65;8.10;;;5.70;99.90;;;;;;5041409;28;20112;-75
2023/12/14 04:49:13;;;;;;;22.15;8.35;;;5.70;99.90;;;;;;5040958;28;20123;-75
2023/12/14 04:51:38;;;;;;;16.48;7.63;;;5.60;99.90;;;;;;5023790;28;20064;-75
2023/12/14 04:54:04;;;;;;;16.80;8.85;;;5.50;99.90;;;;;;5040410;28;20040;-75
2023/12/14 04:56:30;;;;;;;16.48;7.78;;;5.60;99.90;;;;;;5057534;28;20408;-75
2023/12/14 04:58:55;;;;;;;16.55;8.63;;;5.60;99.90;;;;;;5039149;28;20420;-75
2023/12/14 05:01:21;;;;;;;14.05;8.60;;;5.60;99.90;;;;;;5039407;28;20033;-75
2023/12/14 05:03:46;;;;;;;16.27;7.90;;;5.60;99.90;;;;;;5041300;28;20048;-75
2023/12/14 05:06:12;;;;;;;15.15;8.63;;;5.60;99.90;;;;;;5054572;28;20047;-75
2023/12/14 05:08:38;;;;;;;15.38;9.00;;;5.70;99.90;;;;;;5039370;28;20067;-75
2023/12/14 05:11:04;;;;;;;18.05;8.75;;;5.50;99.90;;;;;;5021085;28;20086;-75
2023/12/14 05:13:30;;;;;;;15.95;8.02;;;5.60;99.90;;;;;;5055696;28;20048;-75
2023/12/14 05:15:57;;;;;;;22.08;8.85;;;5.60;99.90;;;;;;5040896;28;20066;-75
2023/12/14 05:18:24;;;;;;;18.27;8.65;;;5.60;99.90;;;;;;5041988;28;20060;-74
2023/12/14 05:20:50;;;;;;;20.35;9.20;;;5.60;99.90;;;;;;5027157;28;20066;-74
2023/12/14 05:23:16;;;;;;;24.80;8.75;;;5.70;99.90;;;;;;5043579;28;20454;-74
2023/12/14 05:25:42;;;;;;;24.73;9.98;;;5.60;99.90;;;;;;5061211;28;20041;-74
2023/12/14 05:28:07;;;;;;;17.30;8.93;;;5.60;99.90;;;;;;5060433;28;20088;-75
2023/12/14 05:30:33;;;;;;;21.85;8.52;;;5.70;99.90;;;;;;5060683;28;20037;-75
2023/12/14 05:32:58;;;;;;;18.25;8.52;;;5.60;99.90;;;;;;5060859;28;20079;-75
2023/12/14 05:35:24;;;;;;;18.70;8.77;;;5.70;99.90;;;;;;5060895;28;20047;-75
2023/12/14 05:37:50;;;;;;;16.08;7.93;;;5.70;99.90;;;;;;5061038;28;20056;-75
2023/12/14 05:40:15;;;;;;;19.27;8.32;;;5.70;99.90;;;;;;5027614;28;20049;-75
2023/12/14 05:42:41;;;;;;;20.77;8.98;;;5.70;99.90;;;;;;5061468;28;20033;-75
2023/12/14 05:45:07;;;;;;;17.60;9.45;;;5.60;99.90;;;;;;5062066;28;20237;-75
2023/12/14 05:47:34;;;;;;;17.92;8.05;;;5.70;99.90;;;;;;5061037;28;20044;-75
2023/12/14 05:50:01;;;;;;;18.80;8.73;;;5.70;99.90;;;;;;5059602;28;20048;-75
2023/12/14 05:52:27;;;;;;;18.00;8.82;;;5.60;99.90;;;;;;5061643;28;20068;-75
2023/12/14 05:54:53;;;;;;;20.20;9.68;;;5.80;99.90;;;;;;5061872;28;20067;-75
2023/12/14 05:57:19;;;;;;;18.20;8.20;;;5.70;99.90;;;;;;5027619;28;20072;-75
2023/12/14 05:59:44;;;;;;;19.67;9.15;;;5.80;99.90;;;;;;5027283;28;20581;-75
2023/12/14 06:02:10;;;;;;;17.38;9.48;;;5.80;99.90;;;;;;5061992;28;20492;-75
2023/12/14 06:04:36;;;;;;;19.55;8.98;;;5.80;99.90;;;;;;5061243;28;20119;-75
2023/12/14 06:07:01;;;;;;;12.57;7.07;;;5.70;99.90;;;;;;5061831;28;20112;-75
2023/12/14 06:09:34;;;;;;;18.38;8.10;;;5.70;99.90;;;;;;5061542;28;20048;-75
2023/12/14 06:12:01;;;;;;;16.58;8.88;;;5.70;99.90;;;;;;5061666;28;20076;-75
2023/12/14 06:14:27;;;;;;;17.38;8.27;;;5.70;99.90;;;;;;5062155;28;20084;-75
2023/12/14 06:16:53;;;;;;;18.02;8.80;;;5.60;99.90;;;;;;5043373;28;20045;-75
2023/12/14 06:19:18;;;;;;;13.45;7.75;;;5.70;99.90;;;;;;5062184;28;20036;-75
2023/12/14 06:21:44;;;;;;;14.70;8.20;;;5.70;99.90;;;;;;5060752;28;20037;-75
2023/12/14 06:24:10;;;;;;;15.70;9.25;;;5.70;99.90;;;;;;5028139;28;20112;-75
2023/12/14 06:26:40;;;;;;;16.73;7.75;;;5.70;99.90;;;;;;5060417;28;20033;-75
2023/12/14 06:29:05;;;;;;;21.80;8.77;;;5.60;99.90;;;;;;5061519;28;20048;-74
2023/12/14 06:31:31;;;;;;;22.23;9.63;;;5.70;99.90;;;;;;5059677;28;20033;-75
2023/12/14 06:33:57;;;;;;;20.30;8.80;;;5.60;99.90;;;;;;5040774;28;20041;-75
2023/12/14 06:36:26;;;;;;;17.67;8.75;;;5.60;99.90;;;;;;5039342;28;20091;-75
2023/12/14 06:38:52;;;;;;;18.50;9.73;;;5.60;99.90;;;;;;5040031;28;20500;-76
2023/12/14 06:41:25;;;;;;;18.58;9.05;;;5.70;99.90;;;;;;5055614;28;20040;-75
2023/12/14 06:43:51;;;;;;;16.65;8.25;;;5.60;99.90;;;;;;5038341;28;20508;-75
2023/12/14 06:46:17;;;;;;;16.58;9.10;;;5.60;99.90;;;;;;5022294;28;20195;-75
2023/12/14 06:48:43;;;;;;;19.55;9.25;;;5.70;99.90;;;;;;5038035;28;21286;-75
2023/12/14 06:51:09;;;;;;;21.17;8.95;;;5.60;99.90;;;;;;5040560;28;20063;-75
2023/12/14 06:53:37;;;;;;;20.13;10.00;;;5.70;99.90;;;;;;5043225;28;20037;-75
2023/12/14 06:56:03;;;;;;;20.33;9.50;;;5.60;99.90;;;;;;5024615;28;20048;-75
2023/12/14 06:58:29;;;;;;;22.67;9.32;;;5.60;99.90;;;;;;5041481;28;20041;-75
2023/12/14 07:00:55;;;;;;;16.70;8.65;;;5.70;99.90;;;;;;5026547;28;20099;-75
2023/12/14 07:03:20;;;;;;;19.40;9.50;;;5.60;99.90;;;;;;5056898;28;20045;-75
2023/12/14 07:05:46;;;;;;;17.58;9.02;;;5.70;99.90;;;;;;5060230;28;20037;-75
2023/12/14 07:08:12;;;;;;;25.98;10.75;;;5.70;99.90;;;;;;5058641;28;20552;-75
2023/12/14 07:10:38;;;;;;;22.88;9.95;;;5.60;99.90;;;;;;5058748;28;20115;-75
2023/12/14 07:13:04;;;;;;;25.98;10.65;;;5.60;99.90;;;;;;5056461;28;20130;-75
2023/12/14 07:15:29;;;;;;;24.77;10.15;;;5.70;99.90;;;;;;5038287;28;20053;-75
2023/12/14 07:17:55;;;;;;;23.05;11.50;;;5.60;99.90;;;;;;5056188;28;20047;-74
2023/12/14 07:20:21;;;;;;;23.08;11.15;;;5.70;99.90;;;;;;5055586;28;20047;-77
2023/12/14 07:22:47;;;;;;;22.02;9.38;;;5.60;99.90;;;;;;5035320;28;20106;-77
2023/12/14 07:25:12;;;;;;;19.85;9.63;;;5.70;99.90;;;;;;5035556;28;20045;-77
2023/12/14 07:27:38;;;;;;;20.75;10.77;;;5.70;99.90;;;;;;5053721;28;20520;-78
2023/12/14 07:30:04;;;;;;;20.90;10.23;;;5.60;99.90;;;;;;5035848;28;20067;-77
2023/12/14 07:32:30;;;;;;;21.65;10.43;;;5.80;99.90;;;;;;5020536;28;20071;-77
2023/12/14 07:34:56;;;;;;;24.42;11.15;;;5.70;99.90;;;;;;5035364;28;20546;-77
2023/12/14 07:37:21;;;;;;;28.05;11.82;;;5.70;99.90;;;;;;5019173;28;20045;-77
2023/12/14 07:39:47;;;;;;;22.33;10.52;;;5.70;99.90;;;;;;5035456;28;20124;-78
2023/12/14 07:42:19;;;;;;;22.15;11.10;;;5.70;99.90;;;;;;5035523;28;20053;-77
2023/12/14 07:44:44;;;;;;;28.60;11.02;;;5.80;99.90;;;;;;5035607;28;20037;-77
2023/12/14 07:47:10;;;;;;;23.65;10.40;;;5.70;99.90;;;;;;5019888;28;20040;-78
2023/12/14 07:49:36;;;;;;;26.02;11.25;;;5.70;99.90;;;;;;5037233;28;20037;-78
2023/12/14 07:52:01;;;;;;;23.73;11.23;;;5.80;99.90;;;;;;5037067;28;20041;-77
2023/12/14 07:54:28;;;;;;;29.00;14.02;;;5.70;99.90;;;;;;5034791;28;20529;-77
2023/12/14 07:56:53;;;;;;;25.90;12.23;;;5.80;99.90;;;;;;5034418;28;20051;-77
2023/12/14 07:59:19;;;;;;;27.27;12.10;;;5.80;99.90;;;;;;5018237;28;20424;-77
2023/12/14 08:01:45;;;;;;;27.48;11.77;;;5.80;99.90;;;;;;5035004;28;20381;-77
2023/12/14 08:04:11;;;;;;;26.15;11.40;;;5.80;99.90;;;;;;5034589;28;20083;-77
2023/12/14 08:06:39;;;;;;;30.95;13.65;;;5.80;99.90;;;;;;5017666;28;20080;-77
2023/12/14 08:09:05;;;;;;;22.83;11.07;;;5.80;99.90;;;;;;5034541;28;20515;-77
2023/12/14 08:11:31;;;;;;;26.92;12.50;;;5.90;99.90;;;;;;5035059;28;20041;-77
2023/12/14 08:13:58;;;;;;;26.63;14.02;;;5.80;99.90;;;;;;5034660;28;20527;-77
2023/12/14 08:16:23;;;;;;;28.83;13.52;;;5.80;99.90;;;;;;5035025;28;20040;-77
2023/12/14 08:18:49;;;;;;;28.70;12.07;;;5.90;99.90;;;;;;5035574;28;20404;-77
2023/12/14 08:21:15;;;;;;;24.38;12.27;;;6.00;99.90;;;;;;5034560;28;20559;-77
2023/12/14 08:23:42;;;;;;;26.83;12.02;;;5.90;99.90;;;;;;5035638;28;20067;-77
2023/12/14 08:26:09;;;;;;;26.98;13.20;;;6.00;99.90;;;;;;5035477;28;20033;-78
2023/12/14 08:28:35;;;;;;;29.08;13.48;;;6.00;99.90;;;;;;5019888;28;20048;-79
2023/12/14 08:31:02;;;;;;;29.95;13.88;;;6.00;99.90;;;;;;5076401;22;20029;-73
2023/12/14 08:33:28;;;;;;;34.28;14.52;;;6.00;99.90;;;;;;5049243;28;20522;-72
2023/12/14 08:35:55;;;;;;;27.17;12.00;;;6.00;99.90;;;;;;5051019;28;20684;-72
2023/12/14 08:38:20;;;;;;;22.63;12.40;;;6.10;99.90;;;;;;5051775;28;20407;-72
2023/12/14 08:40:46;;;;;;;20.33;11.20;;;6.00;99.90;;;;;;5051622;28;20040;-72
2023/12/14 08:43:12;;;;;;;25.08;10.55;;;6.10;99.90;;;;;;5050013;28;20036;-72
2023/12/14 08:45:38;;;;;;;22.80;9.55;;;6.10;99.90;;;;;;5050295;28;20033;-72
2023/12/14 08:48:04;;;;;;;26.98;12.75;;;6.10;99.90;;;;;;5051470;28;20060;-73
2023/12/14 08:50:29;;;;;;;22.30;11.15;;;6.20;99.90;;;;;;5051194;28;20044;-73
2023/12/14 08:52:55;;;;;;;18.50;9.68;;;6.10;99.90;;;;;;5051569;28;20044;-73
2023/12/14 08:55:21;;;;;;;23.83;10.98;;;6.10;99.90;;;;;;5051596;28;20045;-73
2023/12/14 08:57:47;;;;;;;22.90;10.85;;;6.00;99.90;;;;;;5051479;28;20416;-73
2023/12/14 09:00:13;;;;;;;20.60;10.23;;;6.10;99.90;;;;;;5050252;28;20048;-72
2023/12/14 09:02:39;;;;;;;21.48;10.80;;;6.10;99.90;;;;;;5050111;28;20044;-73
2023/12/14 09:05:05;;;;;;;19.27;10.48;;;6.10;99.90;;;;;;5051504;28;20037;-73
2023/12/14 09:07:31;;;;;;;19.42;9.98;;;6.20;99.90;;;;;;5050279;28;20044;-72
2023/12/14 09:09:58;;;;;;;26.85;10.23;;;6.20;99.90;;;;;;5051333;28;20033;-73
2023/12/14 09:12:23;;;;;;;20.77;10.15;;;6.20;99.90;;;;;;5051394;28;20045;-73
2023/12/14 09:14:49;;;;;;;21.67;10.23;;;6.20;99.90;;;;;;5051310;28;20583;-73
2023/12/14 09:17:15;;;;;;;21.30;10.93;;;6.20;99.90;;;;;;5049908;28;20056;-73
2023/12/14 09:19:40;;;;;;;23.00;10.73;;;6.20;99.90;;;;;;5050127;28;20461;-74
2023/12/14 09:22:06;;;;;;;26.48;11.75;;;6.20;99.90;;;;;;5051371;28;20033;-73
2023/12/14 09:24:31;;;;;;;25.88;12.43;;;6.20;99.90;;;;;;5051310;28;20542;-73
2023/12/14 09:26:57;;;;;;;25.08;11.57;;;6.20;99.90;;;;;;5051103;28;20120;-73
2023/12/14 09:29:23;;;;;;;23.20;11.18;;;6.20;99.90;;;;;;5049981;28;20527;-73
2023/12/14 09:31:50;;;;;;;23.02;10.73;;;6.20;99.90;;;;;;5051249;28;20056;-72
2023/12/14 09:34:15;;;;;;;25.33;10.18;;;6.30;99.90;;;;;;5050261;28;20135;-74
2023/12/14 09:36:41;;;;;;;24.10;10.60;;;6.20;99.90;;;;;;5051071;28;20112;-74
2023/12/14 09:39:10;;;;;;;21.05;11.38;;;6.30;99.90;;;;;;5051114;28;20411;-73
2023/12/14 09:41:37;;;;;;;21.33;11.35;;;6.30;99.90;;;;;;5049956;28;20444;-73
2023/12/14 09:44:05;;;;;;;27.33;11.70;;;6.30;99.90;;;;;;5051025;28;20039;-73
2023/12/14 09:46:31;;;;;;;22.13;11.55;;;6.30;99.90;;;;;;5049671;28;20057;-74
2023/12/14 09:48:59;;;;;;;22.42;11.60;;;6.20;99.90;;;;;;5051327;28;20090;-74
2023/12/14 09:51:26;;;;;;;26.63;12.55;;;6.30;99.90;;;;;;5051232;28;20095;-71
2023/12/14 09:53:57;;;;;;;23.50;12.13;;;6.40;99.90;;;;;;5051226;28;20121;-73
2023/12/14 09:56:24;;;;;;;24.42;10.98;;;6.30;99.90;;;;;;5051042;28;20051;-73
2023/12/14 09:58:50;;;;;;;24.63;11.65;;;6.40;99.90;;;;;;5051134;28;20037;-73
2023/12/14 10:01:27;;;;;;;22.77;11.23;;;6.40;99.90;;;;;;5051708;28;20041;-74
2023/12/14 10:04:16;;;;;;;24.92;11.70;;;6.40;99.90;;;;;;5036783;28;20033;-71
2023/12/14 10:06:43;;;;;;;23.55;11.70;;;6.40;99.90;;;;;;5054484;28;20125;-73
2023/12/14 10:09:13;;;;;;;23.98;11.30;;;6.50;99.90;;;;;;5054545;28;20071;-74
2023/12/14 10:11:40;;;;;;;26.52;12.65;;;6.50;99.90;;;;;;5036876;28;20044;-73
2023/12/14 10:14:21;;;;;;;24.88;11.05;;;6.60;99.90;;;;;;5054530;28;20049;-73
2023/12/14 10:16:48;;;;;;;22.10;11.25;;;6.60;99.90;;;;;;5054224;28;20052;-73
2023/12/14 10:19:13;;;;;;;26.17;11.82;;;6.60;99.90;;;;;;5054321;28;20044;-73
2023/12/14 10:21:39;;;;;;;27.27;11.35;;;6.60;99.90;;;;;;5054182;28;20041;-73
2023/12/14 10:24:05;;;;;;;25.27;12.27;;;6.60;99.90;;;;;;5054398;28;20040;-73
2023/12/14 10:26:31;;;;;;;22.55;11.05;;;6.60;99.90;;;;;;5052747;28;20076;-73
2023/12/14 10:28:57;;;;;;;22.77;10.35;;;6.60;99.90;;;;;;5054252;28;20071;-74
2023/12/14 10:31:27;;;;;;;24.23;10.95;;;6.60;99.90;;;;;;5052897;28;20045;-73
2023/12/14 10:33:53;;;;;;;24.27;10.80;;;6.60;99.90;;;;;;5054209;28;20094;-72
2023/12/14 10:36:22;;;;;;;23.02;11.60;;;6.60;99.90;;;;;;5053721;28;20049;-73
2023/12/14 10:38:52;;;;;;;19.08;11.15;;;6.50;99.90;;;;;;5054204;28;20045;-72
2023/12/14 10:41:18;;;;;;;20.77;10.38;;;6.60;99.90;;;;;;5054050;28;20098;-72
2023/12/14 10:43:47;;;;;;;21.45;11.05;;;6.70;99.90;;;;;;5053945;28;20029;-75
2023/12/14 10:46:14;;;;;;;24.27;11.93;;;6.60;99.90;;;;;;5052454;28;20049;-74
2023/12/14 10:48:43;;;;;;;19.83;10.45;;;6.50;99.90;;;;;;5053710;28;20040;-73
2023/12/14 10:51:12;;;;;;;20.75;11.05;;;6.60;99.90;;;;;;5035853;28;20055;-73
2023/12/14 10:53:38;;;;;;;26.42;12.15;;;6.50;99.90;;;;;;5052474;28;20067;-72
2023/12/14 10:56:10;;;;;;;22.02;11.63;;;6.60;99.90;;;;;;5052586;28;20408;-74
2023/12/14 10:58:51;;;;;;;24.10;12.07;;;6.60;99.90;;;;;;5052461;28;20048;-74
2023/12/14 11:01:18;;;;;;;21.05;11.85;;;6.60;99.90;;;;;;5053417;28;20037;-73
2023/12/14 11:03:45;;;;;;;23.08;11.68;;;6.70;99.90;;;;;;5053668;28;20562;-74
2023/12/14 11:06:29;;;;;;;25.92;11.63;;;6.80;99.90;;;;;;5053421;28;20079;-73
2023/12/14 11:09:05;;;;;;;25.88;10.43;;;6.80;99.90;;;;;;5053508;28;20052;-73
2023/12/14 11:11:58;;;;;;;25.13;11.75;;;6.80;99.90;;;;;;5052738;28;20036;-73
2023/12/14 11:14:25;;;;;;;20.38;10.32;;;6.80;99.90;;;;;;5051552;28;20044;-74
2023/12/14 11:16:54;;;;;;;22.77;11.45;;;6.70;99.90;;;;;;5051541;28;20049;-74
2023/12/14 11:19:22;;;;;;;24.25;11.50;;;6.80;99.90;;;;;;5053466;28;20071;-74
2023/12/14 11:21:57;;;;;;;21.95;11.35;;;6.80;99.90;;;;;;5051963;28;20044;-73
2023/12/14 11:24:23;;;;;;;23.92;10.75;;;6.80;99.90;;;;;;5051779;28;20052;-73
2023/12/14 11:26:50;;;;;;;23.35;11.13;;;6.80;99.90;;;;;;5051826;28;20064;-73
2023/12/14 11:29:16;;;;;;;27.65;11.73;;;6.80;99.90;;;;;;5052033;28;20055;-73
2023/12/14 11:31:42;;;;;;;24.58;11.60;;;6.90;99.90;;;;;;5062326;28;20625;-73
2023/12/14 11:34:08;;;;;;;21.98;11.15;;;6.70;99.90;;;;;;5072974;28;20149;-73
2023/12/14 11:36:33;;;;;;;27.60;10.90;;;6.70;99.90;;;;;;5072445;28;20283;-73
2023/12/14 11:38:59;;;;;;;23.33;11.68;;;6.80;99.90;;;;;;5073008;28;20043;-73
2023/12/14 11:41:25;;;;;;;23.35;11.82;;;6.70;99.90;;;;;;5072932;28;20522;-72
2023/12/14 11:43:55;;;;;;;21.33;10.80;;;6.80;99.90;;;;;;5071231;28;20665;-72
2023/12/14 11:46:21;;;;;;;23.10;11.20;;;6.80;99.90;;;;;;5072320;28;20688;-73
2023/12/14 11:48:48;;;;;;;24.65;11.60;;;6.90;99.90;;;;;;5071470;28;20072;-73
2023/12/14 11:51:16;;;;;;;22.05;11.70;;;6.90;99.90;;;;;;5072454;28;20036;-74
2023/12/14 11:53:50;;;;;;;21.25;10.70;;;6.90;99.90;;;;;;5072695;28;20057;-74
2023/12/14 11:56:19;;;;;;;25.73;12.27;;;7.00;99.90;;;;;;5072329;28;20044;-74
2023/12/14 11:58:46;;;;;;;25.05;11.90;;;7.00;99.90;;;;;;5072356;28;20097;-71
2023/12/14 12:01:19;;;;;;;23.65;12.35;;;7.10;99.90;;;;;;5072290;28;20045;-72
2023/12/14 12:03:45;;;;;;;24.48;10.55;;;7.10;99.90;;;;;;5072164;28;20041;-72
2023/12/14 12:06:24;;;;;;;22.83;10.40;;;7.10;99.90;;;;;;5071057;28;20076;-71
2023/12/14 12:08:50;;;;;;;23.25;11.00;;;7.10;99.90;;;;;;5072357;28;20043;-72
2023/12/14 12:11:21;;;;;;;25.10;12.10;;;7.00;99.90;;;;;;5072414;28;20418;-72
2023/12/14 12:13:56;;;;;;;20.20;10.60;;;7.00;99.90;;;;;;5072251;28;20553;-73
2023/12/14 12:16:22;;;;;;;19.45;9.80;;;7.00;99.90;;;;;;5070603;28;20044;-72
2023/12/14 12:18:49;;;;;;;20.45;9.82;;;7.10;99.90;;;;;;5070890;28;20044;-73
2023/12/14 12:21:15;;;;;;;18.20;10.68;;;6.90;99.90;;;;;;5072134;28;20389;-74
2023/12/14 12:23:41;;;;;;;22.42;12.30;;;7.00;99.90;;;;;;5070278;28;20097;-74
2023/12/14 12:26:07;;;;;;;22.27;10.25;;;7.00;99.90;;;;;;5071784;28;20102;-71
2023/12/14 12:28:33;;;;;;;18.45;10.68;;;7.00;99.90;;;;;;5070519;28;20036;-74
2023/12/14 12:30:59;;;;;;;19.45;10.65;;;7.10;99.90;;;;;;5072075;28;20044;-71
2023/12/14 12:33:25;;;;;;;20.77;11.10;;;7.10;99.90;;;;;;5055407;28;20052;-72
2023/12/14 12:35:52;;;;;;;21.02;10.35;;;7.10;99.90;;;;;;5050473;28;20037;-72
2023/12/14 12:38:18;;;;;;;19.73;10.85;;;7.20;99.90;;;;;;5050303;28;20154;-72
2023/12/14 12:40:44;;;;;;;24.25;10.95;;;7.20;99.90;;;;;;5050612;28;20041;-72